sensor_id;sensor_type;location;lat;lon;timestamp;temperature;humidity
20706;DHT22;10514;49.468;11.044;2023-10-19T00:02:05;8.40;96.40
20706;DHT22;10514;49.468;11.044;2023-10-19T00:04:32;8.40;96.40
20706;DHT22;10514;49.468;11.044;2023-10-19T00:07:00;8.40;96.20
20706;DHT22;10514;49.468;11.044;2023-10-19T00:09:26;8.40;96.30
20706;DHT22;10514;49.468;11.044;2023-10-19T00:11:56;8.40;96.30
20706;DHT22;10514;49.468;11.044;2023-10-19T00:14:23;8.50;95.90
20706;DHT22;10514;49.468;11.044;2023-10-19T00:16:51;8.40;95.90
20706;DHT22;10514;49.468;11.044;2023-10-19T00:19:18;8.40;96.10
20706;DHT22;10514;49.468;11.044;2023-10-19T00:21:47;8.40;96.20
20706;DHT22;10514;49.468;11.044;2023-10-19T00:24:17;8.40;96.50
20706;DHT22;10514;49.468;11.044;2023-10-19T00:26:45;8.40;96.40
20706;DHT22;10514;49.468;11.044;2023-10-19T00:29:10;8.50;96.10
20706;DHT22;10514;49.468;11.044;2023-10-19T00:31:59;8.50;96.10
20706;DHT22;10514;49.468;11.044;2023-10-19T00:34:27;8.40;96.30
20706;DHT22;10514;49.468;11.044;2023-10-19T00:36:54;8.40;96.50
20706;DHT22;10514;49.468;11.044;2023-10-19T00:39:22;8.40;96.70
20706;DHT22;10514;49.468;11.044;2023-10-19T00:41:49;8.40;96.80
20706;DHT22;10514;49.468;11.044;2023-10-19T00:44:16;8.40;96.80
20706;DHT22;10514;49.468;11.044;2023-10-19T00:46:49;8.40;96.90
20706;DHT22;10514;49.468;11.044;2023-10-19T00:49:20;8.40;97.00
20706;DHT22;10514;49.468;11.044;2023-10-19T00:51:51;8.40;96.90
20706;DHT22;10514;49.468;11.044;2023-10-19T00:57:06;8.40;97.10
20706;DHT22;10514;49.468;11.044;2023-10-19T00:59:40;8.40;97.10
20706;DHT22;10514;49.468;11.044;2023-10-19T01:02:19;8.50;97.10
20706;DHT22;10514;49.468;11.044;2023-10-19T01:04:54;8.50;97.20
20706;DHT22;10514;49.468;11.044;2023-10-19T01:07:31;8.50;97.30
20706;DHT22;10514;49.468;11.044;2023-10-19T01:10:03;8.50;97.40
20706;DHT22;10514;49.468;11.044;2023-10-19T01:12:43;8.50;97.30
20706;DHT22;10514;49.468;11.044;2023-10-19T01:15:13;8.50;97.30
20706;DHT22;10514;49.468;11.044;2023-10-19T01:17:44;8.50;97.40
20706;DHT22;10514;49.468;11.044;2023-10-19T01:20:13;8.50;97.40
20706;DHT22;10514;49.468;11.044;2023-10-19T01:23:03;8.50;97.40
20706;DHT22;10514;49.468;11.044;2023-10-19T01:28:15;8.60;97.50
20706;DHT22;10514;49.468;11.044;2023-10-19T01:30:43;8.50;97.30
20706;DHT22;10514;49.468;11.044;2023-10-19T01:33:10;10.70;97.90
20706;DHT22;10514;49.468;11.044;2023-10-19T01:35:39;8.60;97.40
20706;DHT22;10514;49.468;11.044;2023-10-19T01:38:24;8.60;97.30
20706;DHT22;10514;49.468;11.044;2023-10-19T01:40:50;8.60;97.20
20706;DHT22;10514;49.468;11.044;2023-10-19T01:43:17;8.60;97.10
20706;DHT22;10514;49.468;11.044;2023-10-19T01:45:56;8.60;97.00
20706;DHT22;10514;49.468;11.044;2023-10-19T01:48:22;8.60;96.70
20706;DHT22;10514;49.468;11.044;2023-10-19T01:50:53;8.60;96.90
20706;DHT22;10514;49.468;11.044;2023-10-19T01:53:18;8.60;96.90
20706;DHT22;10514;49.468;11.044;2023-10-19T01:55:46;8.70;96.80
20706;DHT22;10514;49.468;11.044;2023-10-19T01:58:13;8.70;96.50
20706;DHT22;10514;49.468;11.044;2023-10-19T02:00:46;8.80;96.20
20706;DHT22;10514;49.468;11.044;2023-10-19T02:03:20;8.80;96.30
20706;DHT22;10514;49.468;11.044;2023-10-19T02:05:47;8.70;96.20
20706;DHT22;10514;49.468;11.044;2023-10-19T02:08:15;8.70;96.40
20706;DHT22;10514;49.468;11.044;2023-10-19T02:10:46;8.80;96.10
20706;DHT22;10514;49.468;11.044;2023-10-19T02:13:12;8.80;96.10
20706;DHT22;10514;49.468;11.044;2023-10-19T02:15:42;8.70;96.20
20706;DHT22;10514;49.468;11.044;2023-10-19T02:18:07;8.70;95.90
20706;DHT22;10514;49.468;11.044;2023-10-19T02:20:34;8.80;95.90
20706;DHT22;10514;49.468;11.044;2023-10-19T02:22:59;8.70;96.10
20706;DHT22;10514;49.468;11.044;2023-10-19T02:25:29;8.70;96.10
20706;DHT22;10514;49.468;11.044;2023-10-19T02:27:59;8.60;96.20
20706;DHT22;10514;49.468;11.044;2023-10-19T02:30:25;8.70;96.10
20706;DHT22;10514;49.468;11.044;2023-10-19T02:33:00;8.70;96.00
20706;DHT22;10514;49.468;11.044;2023-10-19T02:35:31;8.60;96.40
20706;DHT22;10514;49.468;11.044;2023-10-19T02:38:02;8.70;96.00
20706;DHT22;10514;49.468;11.044;2023-10-19T02:40:30;8.60;96.30
20706;DHT22;10514;49.468;11.044;2023-10-19T02:43:04;8.60;96.00
20706;DHT22;10514;49.468;11.044;2023-10-19T02:45:34;8.70;95.90
20706;DHT22;10514;49.468;11.044;2023-10-19T02:47:59;10.90;96.20
20706;DHT22;10514;49.468;11.044;2023-10-19T02:50:30;8.50;96.20
20706;DHT22;10514;49.468;11.044;2023-10-19T02:52:56;8.30;96.10
20706;DHT22;10514;49.468;11.044;2023-10-19T02:55:22;8.60;96.20
20706;DHT22;10514;49.468;11.044;2023-10-19T02:57:50;8.70;95.90
20706;DHT22;10514;49.468;11.044;2023-10-19T03:00:16;8.70;96.00
20706;DHT22;10514;49.468;11.044;2023-10-19T03:02:46;8.70;95.60
20706;DHT22;10514;49.468;11.044;2023-10-19T03:05:12;8.80;95.50
20706;DHT22;10514;49.468;11.044;2023-10-19T03:07:41;8.80;95.40
20706;DHT22;10514;49.468;11.044;2023-10-19T03:10:09;8.80;95.70
20706;DHT22;10514;49.468;11.044;2023-10-19T03:12:52;8.80;95.80
20706;DHT22;10514;49.468;11.044;2023-10-19T03:15:18;8.70;95.80
20706;DHT22;10514;49.468;11.044;2023-10-19T03:17:46;8.80;96.00
20706;DHT22;10514;49.468;11.044;2023-10-19T03:20:12;8.70;95.90
20706;DHT22;10514;49.468;11.044;2023-10-19T03:22:37;8.80;95.80
20706;DHT22;10514;49.468;11.044;2023-10-19T03:25:07;8.70;95.90
20706;DHT22;10514;49.468;11.044;2023-10-19T03:27:51;8.70;96.00
20706;DHT22;10514;49.468;11.044;2023-10-19T03:30:18;8.70;96.20
20706;DHT22;10514;49.468;11.044;2023-10-19T03:32:44;8.60;96.20
20706;DHT22;10514;49.468;11.044;2023-10-19T03:35:10;8.60;96.30
20706;DHT22;10514;49.468;11.044;2023-10-19T03:37:40;8.60;96.50
20706;DHT22;10514;49.468;11.044;2023-10-19T03:40:07;8.70;96.20
20706;DHT22;10514;49.468;11.044;2023-10-19T03:42:34;8.80;95.90
20706;DHT22;10514;49.468;11.044;2023-10-19T03:45:07;8.80;95.70
20706;DHT22;10514;49.468;11.044;2023-10-19T03:47:39;8.80;95.80
20706;DHT22;10514;49.468;11.044;2023-10-19T03:50:05;8.80;96.20
20706;DHT22;10514;49.468;11.044;2023-10-19T03:52:39;8.70;96.50
20706;DHT22;10514;49.468;11.044;2023-10-19T03:55:05;8.80;96.30
20706;DHT22;10514;49.468;11.044;2023-10-19T03:57:38;8.70;96.50
20706;DHT22;10514;49.468;11.044;2023-10-19T04:00:16;8.70;96.70
20706;DHT22;10514;49.468;11.044;2023-10-19T04:02:44;8.70;96.70
20706;DHT22;10514;49.468;11.044;2023-10-19T04:05:10;8.70;96.80
20706;DHT22;10514;49.468;11.044;2023-10-19T04:07:39;8.70;96.90
20706;DHT22;10514;49.468;11.044;2023-10-19T04:10:07;8.80;96.90
20706;DHT22;10514;49.468;11.044;2023-10-19T04:12:33;8.70;96.90
20706;DHT22;10514;49.468;11.044;2023-10-19T04:15:01;8.70;97.10
20706;DHT22;10514;49.468;11.044;2023-10-19T04:17:39;8.70;97.10
20706;DHT22;10514;49.468;11.044;2023-10-19T04:20:06;8.70;97.30
20706;DHT22;10514;49.468;11.044;2023-10-19T04:22:48;8.70;97.40
20706;DHT22;10514;49.468;11.044;2023-10-19T04:25:15;8.70;97.40
20706;DHT22;10514;49.468;11.044;2023-10-19T04:27:44;8.70;97.50
20706;DHT22;10514;49.468;11.044;2023-10-19T04:30:11;8.70;97.40
20706;DHT22;10514;49.468;11.044;2023-10-19T04:32:47;8.80;97.30
20706;DHT22;10514;49.468;11.044;2023-10-19T04:35:13;8.70;97.30
20706;DHT22;10514;49.468;11.044;2023-10-19T04:37:40;8.80;97.40
20706;DHT22;10514;49.468;11.044;2023-10-19T04:40:10;8.80;97.00
20706;DHT22;10514;49.468;11.044;2023-10-19T04:42:37;8.80;97.00
20706;DHT22;10514;49.468;11.044;2023-10-19T04:45:04;8.80;97.10
20706;DHT22;10514;49.468;11.044;2023-10-19T04:47:31;8.80;97.20
20706;DHT22;10514;49.468;11.044;2023-10-19T04:49:57;8.80;97.20
20706;DHT22;10514;49.468;11.044;2023-10-19T04:52:22;8.80;97.20
20706;DHT22;10514;49.468;11.044;2023-10-19T04:54:48;8.80;97.20
20706;DHT22;10514;49.468;11.044;2023-10-19T04:57:13;8.70;97.30
20706;DHT22;10514;49.468;11.044;2023-10-19T04:59:39;8.80;97.30
20706;DHT22;10514;49.468;11.044;2023-10-19T05:02:04;8.70;97.40
20706;DHT22;10514;49.468;11.044;2023-10-19T05:04:31;8.80;97.20
20706;DHT22;10514;49.468;11.044;2023-10-19T05:06:56;8.80;97.40
20706;DHT22;10514;49.468;11.044;2023-10-19T05:09:22;8.80;97.30
20706;DHT22;10514;49.468;11.044;2023-10-19T05:11:47;8.70;97.50
20706;DHT22;10514;49.468;11.044;2023-10-19T05:14:13;8.70;97.70
20706;DHT22;10514;49.468;11.044;2023-10-19T05:16:40;8.70;97.40
20706;DHT22;10514;49.468;11.044;2023-10-19T05:19:07;8.80;97.50
20706;DHT22;10514;49.468;11.044;2023-10-19T05:21:33;8.70;97.80
20706;DHT22;10514;49.468;11.044;2023-10-19T05:24:00;8.70;98.10
20706;DHT22;10514;49.468;11.044;2023-10-19T05:26:26;8.60;98.20
20706;DHT22;10514;49.468;11.044;2023-10-19T05:28:51;8.70;98.40
20706;DHT22;10514;49.468;11.044;2023-10-19T05:31:17;8.60;98.50
20706;DHT22;10514;49.468;11.044;2023-10-19T05:33:42;8.60;98.70
20706;DHT22;10514;49.468;11.044;2023-10-19T05:36:08;8.60;98.60
20706;DHT22;10514;49.468;11.044;2023-10-19T05:38:34;8.60;98.80
20706;DHT22;10514;49.468;11.044;2023-10-19T05:40:59;8.60;98.90
20706;DHT22;10514;49.468;11.044;2023-10-19T05:43:26;8.60;98.70
20706;DHT22;10514;49.468;11.044;2023-10-19T05:45:51;8.70;98.90
20706;DHT22;10514;49.468;11.044;2023-10-19T05:48:17;8.70;99.20
20706;DHT22;10514;49.468;11.044;2023-10-19T05:50:43;8.70;99.00
20706;DHT22;10514;49.468;11.044;2023-10-19T05:53:08;8.70;99.20
20706;DHT22;10514;49.468;11.044;2023-10-19T05:55:34;8.70;99.30
20706;DHT22;10514;49.468;11.044;2023-10-19T05:58:01;8.70;99.00
20706;DHT22;10514;49.468;11.044;2023-10-19T06:00:30;8.80;99.00
20706;DHT22;10514;49.468;11.044;2023-10-19T06:02:56;8.80;98.70
20706;DHT22;10514;49.468;11.044;2023-10-19T06:05:23;8.70;98.70
20706;DHT22;10514;49.468;11.044;2023-10-19T06:07:50;8.70;98.80
20706;DHT22;10514;49.468;11.044;2023-10-19T06:10:20;8.70;98.80
20706;DHT22;10514;49.468;11.044;2023-10-19T06:12:48;8.80;98.50
20706;DHT22;10514;49.468;11.044;2023-10-19T06:15:16;8.80;98.30
20706;DHT22;10514;49.468;11.044;2023-10-19T06:17:42;8.70;98.20
20706;DHT22;10514;49.468;11.044;2023-10-19T06:20:10;8.80;98.10
20706;DHT22;10514;49.468;11.044;2023-10-19T06:22:49;8.80;98.00
20706;DHT22;10514;49.468;11.044;2023-10-19T06:25:20;8.90;97.80
20706;DHT22;10514;49.468;11.044;2023-10-19T06:27:49;8.90;97.30
20706;DHT22;10514;49.468;11.044;2023-10-19T06:30:16;8.90;97.10
20706;DHT22;10514;49.468;11.044;2023-10-19T06:33:00;8.90;96.70
20706;DHT22;10514;49.468;11.044;2023-10-19T06:35:32;9.00;96.70
20706;DHT22;10514;49.468;11.044;2023-10-19T06:37:58;8.90;97.00
20706;DHT22;10514;49.468;11.044;2023-10-19T06:40:24;8.90;96.90
20706;DHT22;10514;49.468;11.044;2023-10-19T06:42:54;8.80;96.70
20706;DHT22;10514;49.468;11.044;2023-10-19T06:45:21;9.00;96.90
20706;DHT22;10514;49.468;11.044;2023-10-19T06:47:48;9.10;96.90
20706;DHT22;10514;49.468;11.044;2023-10-19T06:50:17;9.10;96.70
20706;DHT22;10514;49.468;11.044;2023-10-19T06:52:44;9.20;97.00
20706;DHT22;10514;49.468;11.044;2023-10-19T06:55:11;9.20;96.20
20706;DHT22;10514;49.468;11.044;2023-10-19T06:57:41;9.30;96.30
20706;DHT22;10514;49.468;11.044;2023-10-19T07:00:09;9.40;95.90
20706;DHT22;10514;49.468;11.044;2023-10-19T07:02:50;9.50;95.50
20706;DHT22;10514;49.468;11.044;2023-10-19T07:05:19;9.50;95.30
20706;DHT22;10514;49.468;11.044;2023-10-19T07:07:55;9.40;95.40
20706;DHT22;10514;49.468;11.044;2023-10-19T07:10:22;9.60;95.60
20706;DHT22;10514;49.468;11.044;2023-10-19T07:12:51;9.60;95.20
20706;DHT22;10514;49.468;11.044;2023-10-19T07:15:17;9.70;94.80
20706;DHT22;10514;49.468;11.044;2023-10-19T07:17:45;9.70;95.30
20706;DHT22;10514;49.468;11.044;2023-10-19T07:20:13;9.70;95.40
20706;DHT22;10514;49.468;11.044;2023-10-19T07:22:51;9.70;95.60
20706;DHT22;10514;49.468;11.044;2023-10-19T07:25:17;10.00;95.40
20706;DHT22;10514;49.468;11.044;2023-10-19T07:27:48;10.30;94.70
20706;DHT22;10514;49.468;11.044;2023-10-19T07:30:14;10.50;93.40
20706;DHT22;10514;49.468;11.044;2023-10-19T07:32:41;10.50;93.20
20706;DHT22;10514;49.468;11.044;2023-10-19T07:35:07;10.50;93.10
20706;DHT22;10514;49.468;11.044;2023-10-19T07:37:33;10.40;92.90
20706;DHT22;10514;49.468;11.044;2023-10-19T07:39:58;10.40;93.30
20706;DHT22;10514;49.468;11.044;2023-10-19T07:42:24;10.30;93.10
20706;DHT22;10514;49.468;11.044;2023-10-19T07:44:51;10.30;93.60
20706;DHT22;10514;49.468;11.044;2023-10-19T07:47:16;10.20;93.90
20706;DHT22;10514;49.468;11.044;2023-10-19T07:49:42;10.20;94.10
20706;DHT22;10514;49.468;11.044;2023-10-19T07:52:08;10.30;93.60
20706;DHT22;10514;49.468;11.044;2023-10-19T07:54:36;10.30;93.60
20706;DHT22;10514;49.468;11.044;2023-10-19T07:57:03;10.30;93.50
20706;DHT22;10514;49.468;11.044;2023-10-19T07:59:32;10.40;93.90
20706;DHT22;10514;49.468;11.044;2023-10-19T08:01:58;10.40;93.90
20706;DHT22;10514;49.468;11.044;2023-10-19T08:04:26;10.50;93.80
20706;DHT22;10514;49.468;11.044;2023-10-19T08:06:53;10.70;93.60
20706;DHT22;10514;49.468;11.044;2023-10-19T08:09:18;10.90;93.50
20706;DHT22;10514;49.468;11.044;2023-10-19T08:11:51;11.10;92.80
20706;DHT22;10514;49.468;11.044;2023-10-19T08:14:22;11.30;92.00
20706;DHT22;10514;49.468;11.044;2023-10-19T08:16:50;11.30;91.50
20706;DHT22;10514;49.468;11.044;2023-10-19T08:19:16;11.40;91.50
20706;DHT22;10514;49.468;11.044;2023-10-19T08:21:41;11.30;91.70
20706;DHT22;10514;49.468;11.044;2023-10-19T08:24:08;11.30;91.10
20706;DHT22;10514;49.468;11.044;2023-10-19T08:26:39;11.20;91.50
20706;DHT22;10514;49.468;11.044;2023-10-19T08:29:05;11.10;91.80
20706;DHT22;10514;49.468;11.044;2023-10-19T08:31:39;13.30;92.40
20706;DHT22;10514;49.468;11.044;2023-10-19T08:34:05;11.10;92.10
20706;DHT22;10514;49.468;11.044;2023-10-19T08:36:31;11.30;92.00
20706;DHT22;10514;49.468;11.044;2023-10-19T08:38:56;11.70;91.30
20706;DHT22;10514;49.468;11.044;2023-10-19T08:41:22;12.00;91.10
20706;DHT22;10514;49.468;11.044;2023-10-19T08:43:49;12.30;90.20
20706;DHT22;10514;49.468;11.044;2023-10-19T08:46:19;12.60;86.30
20706;DHT22;10514;49.468;11.044;2023-10-19T08:48:44;12.70;86.50
20706;DHT22;10514;49.468;11.044;2023-10-19T08:51:10;12.80;85.60
20706;DHT22;10514;49.468;11.044;2023-10-19T08:53:39;12.80;85.50
20706;DHT22;10514;49.468;11.044;2023-10-19T08:56:07;12.80;86.50
20706;DHT22;10514;49.468;11.044;2023-10-19T08:58:33;12.80;85.80
20706;DHT22;10514;49.468;11.044;2023-10-19T09:00:58;12.70;87.20
20706;DHT22;10514;49.468;11.044;2023-10-19T09:03:32;12.70;86.80
20706;DHT22;10514;49.468;11.044;2023-10-19T09:06:01;12.50;87.90
20706;DHT22;10514;49.468;11.044;2023-10-19T09:08:27;12.50;87.90
20706;DHT22;10514;49.468;11.044;2023-10-19T09:11:09;12.70;87.50
20706;DHT22;10514;49.468;11.044;2023-10-19T09:13:43;12.80;88.20
20706;DHT22;10514;49.468;11.044;2023-10-19T09:16:16;13.10;87.60
20706;DHT22;10514;49.468;11.044;2023-10-19T09:18:42;13.50;85.60
20706;DHT22;10514;49.468;11.044;2023-10-19T09:21:08;13.90;83.40
20706;DHT22;10514;49.468;11.044;2023-10-19T09:23:37;14.20;82.20
20706;DHT22;10514;49.468;11.044;2023-10-19T09:26:04;14.40;81.10
20706;DHT22;10514;49.468;11.044;2023-10-19T09:28:36;14.50;79.60
20706;DHT22;10514;49.468;11.044;2023-10-19T09:31:03;14.50;80.10
20706;DHT22;10514;49.468;11.044;2023-10-19T09:33:31;14.60;81.20
20706;DHT22;10514;49.468;11.044;2023-10-19T09:36:00;14.60;81.40
20706;DHT22;10514;49.468;11.044;2023-10-19T09:38:27;14.50;79.70
20706;DHT22;10514;49.468;11.044;2023-10-19T09:40:53;14.40;79.60
20706;DHT22;10514;49.468;11.044;2023-10-19T09:43:24;14.30;79.40
20706;DHT22;10514;49.468;11.044;2023-10-19T09:45:57;14.50;79.90
20706;DHT22;10514;49.468;11.044;2023-10-19T09:48:26;14.10;80.20
20706;DHT22;10514;49.468;11.044;2023-10-19T09:50:53;14.00;81.60
20706;DHT22;10514;49.468;11.044;2023-10-19T09:53:25;14.00;81.80
20706;DHT22;10514;49.468;11.044;2023-10-19T09:55:55;14.00;82.60
20706;DHT22;10514;49.468;11.044;2023-10-19T09:58:26;14.10;83.30
20706;DHT22;10514;49.468;11.044;2023-10-19T10:00:54;14.10;81.30
20706;DHT22;10514;49.468;11.044;2023-10-19T10:03:45;14.10;81.00
20706;DHT22;10514;49.468;11.044;2023-10-19T10:06:12;14.10;81.30
20706;DHT22;10514;49.468;11.044;2023-10-19T10:08:40;14.20;81.70
20706;DHT22;10514;49.468;11.044;2023-10-19T10:11:20;14.20;79.90
20706;DHT22;10514;49.468;11.044;2023-10-19T10:13:48;14.20;80.10
20706;DHT22;10514;49.468;11.044;2023-10-19T10:16:17;14.20;81.30
20706;DHT22;10514;49.468;11.044;2023-10-19T10:18:46;14.20;80.80
20706;DHT22;10514;49.468;11.044;2023-10-19T10:21:14;14.20;80.90
20706;DHT22;10514;49.468;11.044;2023-10-19T10:23:47;14.30;81.30
20706;DHT22;10514;49.468;11.044;2023-10-19T10:26:14;14.30;80.90
20706;DHT22;10514;49.468;11.044;2023-10-19T10:28:41;14.30;82.30
20706;DHT22;10514;49.468;11.044;2023-10-19T10:31:11;14.40;81.70
20706;DHT22;10514;49.468;11.044;2023-10-19T10:33:49;14.40;82.50
20706;DHT22;10514;49.468;11.044;2023-10-19T10:36:17;14.60;82.80
20706;DHT22;10514;49.468;11.044;2023-10-19T10:38:43;14.60;80.20
20706;DHT22;10514;49.468;11.044;2023-10-19T10:41:09;14.60;80.40
20706;DHT22;10514;49.468;11.044;2023-10-19T10:43:55;14.40;80.50
20706;DHT22;10514;49.468;11.044;2023-10-19T10:46:22;14.40;81.60
20706;DHT22;10514;49.468;11.044;2023-10-19T10:48:48;14.40;81.60
20706;DHT22;10514;49.468;11.044;2023-10-19T10:51:22;14.50;81.20
20706;DHT22;10514;49.468;11.044;2023-10-19T10:53:49;14.50;80.60
20706;DHT22;10514;49.468;11.044;2023-10-19T10:56:16;14.50;81.10
20706;DHT22;10514;49.468;11.044;2023-10-19T10:58:42;14.60;80.90
20706;DHT22;10514;49.468;11.044;2023-10-19T11:01:07;14.60;81.50
20706;DHT22;10514;49.468;11.044;2023-10-19T11:03:33;14.80;81.40
20706;DHT22;10514;49.468;11.044;2023-10-19T11:06:09;14.90;80.50
20706;DHT22;10514;49.468;11.044;2023-10-19T11:08:36;15.20;80.40
20706;DHT22;10514;49.468;11.044;2023-10-19T11:11:07;15.40;79.40
20706;DHT22;10514;49.468;11.044;2023-10-19T11:13:36;15.60;78.60
20706;DHT22;10514;49.468;11.044;2023-10-19T11:16:04;15.60;76.60
20706;DHT22;10514;49.468;11.044;2023-10-19T11:18:38;15.50;76.90
20706;DHT22;10514;49.468;11.044;2023-10-19T11:21:13;15.50;77.40
20706;DHT22;10514;49.468;11.044;2023-10-19T11:23:50;15.50;77.10
20706;DHT22;10514;49.468;11.044;2023-10-19T11:26:21;15.50;77.50
20706;DHT22;10514;49.468;11.044;2023-10-19T11:28:47;15.50;77.80
20706;DHT22;10514;49.468;11.044;2023-10-19T11:31:22;15.60;78.60
20706;DHT22;10514;49.468;11.044;2023-10-19T11:33:49;15.60;77.80
20706;DHT22;10514;49.468;11.044;2023-10-19T11:36:19;15.60;77.90
20706;DHT22;10514;49.468;11.044;2023-10-19T11:38:46;15.70;77.60
20706;DHT22;10514;49.468;11.044;2023-10-19T11:41:13;15.80;78.10
20706;DHT22;10514;49.468;11.044;2023-10-19T11:43:40;15.70;77.00
20706;DHT22;10514;49.468;11.044;2023-10-19T11:46:06;15.90;77.30
20706;DHT22;10514;49.468;11.044;2023-10-19T11:48:33;16.00;77.30
20706;DHT22;10514;49.468;11.044;2023-10-19T11:51:00;16.10;76.00
20706;DHT22;10514;49.468;11.044;2023-10-19T11:53:32;16.10;76.50
20706;DHT22;10514;49.468;11.044;2023-10-19T11:56:09;16.20;77.40
20706;DHT22;10514;49.468;11.044;2023-10-19T11:58:35;15.80;77.80
20706;DHT22;10514;49.468;11.044;2023-10-19T12:01:02;15.90;78.30
20706;DHT22;10514;49.468;11.044;2023-10-19T12:03:31;15.90;78.70
20706;DHT22;10514;49.468;11.044;2023-10-19T12:05:57;15.90;77.80
20706;DHT22;10514;49.468;11.044;2023-10-19T12:08:23;16.00;77.80
20706;DHT22;10514;49.468;11.044;2023-10-19T12:10:50;15.90;78.20
20706;DHT22;10514;49.468;11.044;2023-10-19T12:13:17;15.80;78.40
20706;DHT22;10514;49.468;11.044;2023-10-19T12:15:42;15.80;78.60
20706;DHT22;10514;49.468;11.044;2023-10-19T12:18:19;15.90;78.00
20706;DHT22;10514;49.468;11.044;2023-10-19T12:20:45;15.80;78.70
20706;DHT22;10514;49.468;11.044;2023-10-19T12:23:14;15.90;78.70
20706;DHT22;10514;49.468;11.044;2023-10-19T12:25:40;15.60;78.90
20706;DHT22;10514;49.468;11.044;2023-10-19T12:28:08;15.90;79.50
20706;DHT22;10514;49.468;11.044;2023-10-19T12:30:33;15.90;79.30
20706;DHT22;10514;49.468;11.044;2023-10-19T12:33:08;16.00;79.20
20706;DHT22;10514;49.468;11.044;2023-10-19T12:35:38;16.10;79.10
20706;DHT22;10514;49.468;11.044;2023-10-19T12:38:24;16.10;78.10
20706;DHT22;10514;49.468;11.044;2023-10-19T12:40:51;16.10;78.20
20706;DHT22;10514;49.468;11.044;2023-10-19T12:43:17;16.10;78.60
20706;DHT22;10514;49.468;11.044;2023-10-19T12:45:52;16.00;79.10
20706;DHT22;10514;49.468;11.044;2023-10-19T12:48:22;16.00;78.40
20706;DHT22;10514;49.468;11.044;2023-10-19T12:50:50;15.90;79.70
20706;DHT22;10514;49.468;11.044;2023-10-19T12:53:16;15.90;79.40
20706;DHT22;10514;49.468;11.044;2023-10-19T12:55:42;15.80;79.50
20706;DHT22;10514;49.468;11.044;2023-10-19T12:58:09;16.00;79.70
20706;DHT22;10514;49.468;11.044;2023-10-19T13:00:36;16.00;79.40
20706;DHT22;10514;49.468;11.044;2023-10-19T13:03:05;16.00;80.00
20706;DHT22;10514;49.468;11.044;2023-10-19T13:05:37;16.20;79.30
20706;DHT22;10514;49.468;11.044;2023-10-19T13:08:06;16.20;79.40
20706;DHT22;10514;49.468;11.044;2023-10-19T13:10:33;16.20;79.40
20706;DHT22;10514;49.468;11.044;2023-10-19T13:13:00;16.30;79.40
20706;DHT22;10514;49.468;11.044;2023-10-19T13:15:34;16.30;79.50
20706;DHT22;10514;49.468;11.044;2023-10-19T13:18:05;16.20;79.90
20706;DHT22;10514;49.468;11.044;2023-10-19T13:20:31;16.20;80.30
20706;DHT22;10514;49.468;11.044;2023-10-19T13:23:04;16.10;80.60
20706;DHT22;10514;49.468;11.044;2023-10-19T13:25:35;16.20;81.10
20706;DHT22;10514;49.468;11.044;2023-10-19T13:28:10;16.10;81.60
20706;DHT22;10514;49.468;11.044;2023-10-19T13:30:47;16.00;81.30
20706;DHT22;10514;49.468;11.044;2023-10-19T13:33:13;15.80;81.60
20706;DHT22;10514;49.468;11.044;2023-10-19T13:35:43;15.80;82.00
20706;DHT22;10514;49.468;11.044;2023-10-19T13:38:10;15.80;82.20
20706;DHT22;10514;49.468;11.044;2023-10-19T13:40:37;15.70;82.90
20706;DHT22;10514;49.468;11.044;2023-10-19T13:43:04;17.40;84.30
20706;DHT22;10514;49.468;11.044;2023-10-19T13:45:32;15.60;83.70
20706;DHT22;10514;49.468;11.044;2023-10-19T13:48:02;15.50;84.30
20706;DHT22;10514;49.468;11.044;2023-10-19T13:50:32;15.50;85.10
20706;DHT22;10514;49.468;11.044;2023-10-19T13:52:59;15.60;85.50
20706;DHT22;10514;49.468;11.044;2023-10-19T13:55:28;15.50;86.10
20706;DHT22;10514;49.468;11.044;2023-10-19T13:57:55;15.50;86.60
20706;DHT22;10514;49.468;11.044;2023-10-19T14:00:24;15.50;87.10
20706;DHT22;10514;49.468;11.044;2023-10-19T14:03:01;15.50;87.30
20706;DHT22;10514;49.468;11.044;2023-10-19T14:05:39;15.50;87.80
20706;DHT22;10514;49.468;11.044;2023-10-19T14:08:06;15.40;88.70
20706;DHT22;10514;49.468;11.044;2023-10-19T14:10:33;15.30;88.80
20706;DHT22;10514;49.468;11.044;2023-10-19T14:12:59;15.30;89.70
20706;DHT22;10514;49.468;11.044;2023-10-19T14:15:24;15.30;89.60
20706;DHT22;10514;49.468;11.044;2023-10-19T14:17:55;15.20;90.20
20706;DHT22;10514;49.468;11.044;2023-10-19T14:20:21;15.20;90.10
20706;DHT22;10514;49.468;11.044;2023-10-19T14:22:51;15.10;90.60
20706;DHT22;10514;49.468;11.044;2023-10-19T14:25:19;15.00;90.80
20706;DHT22;10514;49.468;11.044;2023-10-19T14:27:47;15.10;90.40
20706;DHT22;10514;49.468;11.044;2023-10-19T14:30:16;14.30;90.60
20706;DHT22;10514;49.468;11.044;2023-10-19T14:32:43;15.00;90.80
20706;DHT22;10514;49.468;11.044;2023-10-19T14:35:10;14.90;90.50
20706;DHT22;10514;49.468;11.044;2023-10-19T14:37:40;15.00;90.70
20706;DHT22;10514;49.468;11.044;2023-10-19T14:40:12;15.00;91.00
20706;DHT22;10514;49.468;11.044;2023-10-19T14:42:41;15.00;91.30
20706;DHT22;10514;49.468;11.044;2023-10-19T14:45:12;14.90;91.40
20706;DHT22;10514;49.468;11.044;2023-10-19T14:47:40;14.90;91.40
20706;DHT22;10514;49.468;11.044;2023-10-19T14:50:09;14.90;91.30
20706;DHT22;10514;49.468;11.044;2023-10-19T14:52:35;14.90;91.80
20706;DHT22;10514;49.468;11.044;2023-10-19T14:55:01;14.80;92.00
20706;DHT22;10514;49.468;11.044;2023-10-19T14:57:26;13.60;91.60
20706;DHT22;10514;49.468;11.044;2023-10-19T14:59:52;14.80;92.10
20706;DHT22;10514;49.468;11.044;2023-10-19T15:02:18;14.70;92.40
20706;DHT22;10514;49.468;11.044;2023-10-19T15:04:48;14.70;92.10
20706;DHT22;10514;49.468;11.044;2023-10-19T15:07:14;14.70;92.60
20706;DHT22;10514;49.468;11.044;2023-10-19T15:09:39;14.60;92.40
20706;DHT22;10514;49.468;11.044;2023-10-19T15:12:05;13.50;92.10
20706;DHT22;10514;49.468;11.044;2023-10-19T15:14:32;14.60;92.70
20706;DHT22;10514;49.468;11.044;2023-10-19T15:16:57;14.50;93.00
20706;DHT22;10514;49.468;11.044;2023-10-19T15:19:23;14.50;93.20
20706;DHT22;10514;49.468;11.044;2023-10-19T15:21:49;14.50;93.10
20706;DHT22;10514;49.468;11.044;2023-10-19T15:24:14;14.40;93.60
20706;DHT22;10514;49.468;11.044;2023-10-19T15:26:41;14.40;93.80
20706;DHT22;10514;49.468;11.044;2023-10-19T15:29:08;14.30;93.80
20706;DHT22;10514;49.468;11.044;2023-10-19T15:31:35;14.30;94.00
20706;DHT22;10514;49.468;11.044;2023-10-19T15:34:00;14.30;94.20
20706;DHT22;10514;49.468;11.044;2023-10-19T15:36:26;14.20;94.20
20706;DHT22;10514;49.468;11.044;2023-10-19T15:38:51;14.20;94.50